Long Prairie, Minnesota
Current Conditions -  °F | °C
As of 2:14 AM on Tuesday 27 Jan 2015 (Local Time) from K14Y Reporting Station
Overcast Overcast  
Wind Chill: 25°   Ceiling: 1000
Heat Index: 30°   Visibility: 10mi
Dew Point: 27°   Wind: 5mph
Humidity: 86%   Direction: 340°NNW
Pressure: 30.04"   Gusts: NA
Location:  45.97°N, 94.87°W
Report Text: K14Y 270814Z AUTO 34004KT 10SM OVC010 M01/M03 A3004 RMK AO2
Loading
Personal Weather Stations






























Interactive Weather Map New forecast layout! Learn more

10-Day Weather Forecast

Advertisements
Track Severe Weather on mobile